sensor_id;sensor_type;location;lat;lon;timestamp;temperature;humidity
17437;DHT22;72029;52.198;5.422;2023-08-07T00:00:07;13.60;83.10
17437;DHT22;72029;52.198;5.422;2023-08-07T00:02:39;13.70;83.10
17437;DHT22;72029;52.198;5.422;2023-08-07T00:05:08;13.60;83.10
17437;DHT22;72029;52.198;5.422;2023-08-07T00:07:37;13.70;83.10
17437;DHT22;72029;52.198;5.422;2023-08-07T00:10:07;13.70;83.10
17437;DHT22;72029;52.198;5.422;2023-08-07T00:12:37;13.70;83.10
17437;DHT22;72029;52.198;5.422;2023-08-07T00:15:07;13.70;83.10
17437;DHT22;72029;52.198;5.422;2023-08-07T00:17:39;13.70;83.10
17437;DHT22;72029;52.198;5.422;2023-08-07T00:20:09;13.70;83.10
17437;DHT22;72029;52.198;5.422;2023-08-07T00:22:38;13.70;83.10
17437;DHT22;72029;52.198;5.422;2023-08-07T00:25:08;13.70;83.10
17437;DHT22;72029;52.198;5.422;2023-08-07T00:27:37;13.70;83.10
17437;DHT22;72029;52.198;5.422;2023-08-07T00:30:07;13.60;83.10
17437;DHT22;72029;52.198;5.422;2023-08-07T00:32:40;13.60;83.10
17437;DHT22;72029;52.198;5.422;2023-08-07T00:35:09;13.60;83.10
17437;DHT22;72029;52.198;5.422;2023-08-07T00:37:38;13.60;83.10
17437;DHT22;72029;52.198;5.422;2023-08-07T00:40:08;13.60;83.10
17437;DHT22;72029;52.198;5.422;2023-08-07T00:42:38;13.70;83.10
17437;DHT22;72029;52.198;5.422;2023-08-07T00:45:08;13.70;83.10
17437;DHT22;72029;52.198;5.422;2023-08-07T00:47:41;13.70;83.10
17437;DHT22;72029;52.198;5.422;2023-08-07T00:50:10;13.70;83.10
17437;DHT22;72029;52.198;5.422;2023-08-07T00:52:40;13.70;83.10
17437;DHT22;72029;52.198;5.422;2023-08-07T00:55:09;13.70;83.10
17437;DHT22;72029;52.198;5.422;2023-08-07T00:57:39;13.70;83.10
17437;DHT22;72029;52.198;5.422;2023-08-07T01:00:10;13.70;83.10
17437;DHT22;72029;52.198;5.422;2023-08-07T01:02:44;13.70;83.10
17437;DHT22;72029;52.198;5.422;2023-08-07T01:05:16;13.70;83.10
17437;DHT22;72029;52.198;5.422;2023-08-07T01:07:47;13.80;83.10
17437;DHT22;72029;52.198;5.422;2023-08-07T01:10:24;13.80;83.10
17437;DHT22;72029;52.198;5.422;2023-08-07T01:13:24;13.80;83.10
17437;DHT22;72029;52.198;5.422;2023-08-07T01:16:01;13.80;83.10
17437;DHT22;72029;52.198;5.422;2023-08-07T01:18:36;13.90;83.10
17437;DHT22;72029;52.198;5.422;2023-08-07T01:21:07;13.90;83.10
17437;DHT22;72029;52.198;5.422;2023-08-07T01:23:48;13.90;83.10
17437;DHT22;72029;52.198;5.422;2023-08-07T01:26:19;13.90;83.10
17437;DHT22;72029;52.198;5.422;2023-08-07T01:28:56;14.00;83.10
17437;DHT22;72029;52.198;5.422;2023-08-07T01:31:33;13.90;83.10
17437;DHT22;72029;52.198;5.422;2023-08-07T01:34:05;14.00;83.10
17437;DHT22;72029;52.198;5.422;2023-08-07T01:36:37;14.00;83.10
17437;DHT22;72029;52.198;5.422;2023-08-07T01:39:10;14.00;83.10
17437;DHT22;72029;52.198;5.422;2023-08-07T01:41:41;14.00;83.10
17437;DHT22;72029;52.198;5.422;2023-08-07T01:44:10;14.10;83.10
17437;DHT22;72029;52.198;5.422;2023-08-07T01:46:40;14.10;83.10
17437;DHT22;72029;52.198;5.422;2023-08-07T01:49:10;14.10;83.10
17437;DHT22;72029;52.198;5.422;2023-08-07T01:51:38;14.00;83.10
17437;DHT22;72029;52.198;5.422;2023-08-07T01:54:10;14.00;83.10
17437;DHT22;72029;52.198;5.422;2023-08-07T01:56:39;14.00;83.10
17437;DHT22;72029;52.198;5.422;2023-08-07T01:59:08;13.90;83.10
17437;DHT22;72029;52.198;5.422;2023-08-07T02:01:37;13.90;83.10
17437;DHT22;72029;52.198;5.422;2023-08-07T02:04:06;13.80;83.10
17437;DHT22;72029;52.198;5.422;2023-08-07T02:06:35;13.80;83.10
17437;DHT22;72029;52.198;5.422;2023-08-07T02:09:04;13.80;83.10
17437;DHT22;72029;52.198;5.422;2023-08-07T02:11:36;13.90;83.10
17437;DHT22;72029;52.198;5.422;2023-08-07T02:14:05;13.90;83.10
17437;DHT22;72029;52.198;5.422;2023-08-07T02:16:34;13.80;83.10
17437;DHT22;72029;52.198;5.422;2023-08-07T02:19:03;13.80;83.10
17437;DHT22;72029;52.198;5.422;2023-08-07T02:21:32;13.80;83.10
17437;DHT22;72029;52.198;5.422;2023-08-07T02:24:01;13.80;83.10
17437;DHT22;72029;52.198;5.422;2023-08-07T02:26:30;13.80;83.10
17437;DHT22;72029;52.198;5.422;2023-08-07T02:29:01;13.90;83.10
17437;DHT22;72029;52.198;5.422;2023-08-07T02:31:33;13.90;83.10
17437;DHT22;72029;52.198;5.422;2023-08-07T02:34:01;13.90;83.10
17437;DHT22;72029;52.198;5.422;2023-08-07T02:36:31;13.90;83.10
17437;DHT22;72029;52.198;5.422;2023-08-07T02:39:00;13.90;83.10
17437;DHT22;72029;52.198;5.422;2023-08-07T02:41:28;13.90;83.10
17437;DHT22;72029;52.198;5.422;2023-08-07T02:43:57;13.90;83.10
17437;DHT22;72029;52.198;5.422;2023-08-07T02:46:29;13.90;83.10
17437;DHT22;72029;52.198;5.422;2023-08-07T02:49:00;13.80;83.10
17437;DHT22;72029;52.198;5.422;2023-08-07T02:51:29;13.80;83.10
17437;DHT22;72029;52.198;5.422;2023-08-07T02:53:58;13.80;83.10
17437;DHT22;72029;52.198;5.422;2023-08-07T02:56:27;13.70;83.10
17437;DHT22;72029;52.198;5.422;2023-08-07T02:58:56;13.70;83.10
17437;DHT22;72029;52.198;5.422;2023-08-07T03:01:29;13.70;83.10
17437;DHT22;72029;52.198;5.422;2023-08-07T03:03:58;13.70;83.10
17437;DHT22;72029;52.198;5.422;2023-08-07T03:06:27;13.70;83.10
17437;DHT22;72029;52.198;5.422;2023-08-07T03:08:56;13.80;83.10
17437;DHT22;72029;52.198;5.422;2023-08-07T03:11:26;13.70;83.10
17437;DHT22;72029;52.198;5.422;2023-08-07T03:13:55;13.70;83.10
17437;DHT22;72029;52.198;5.422;2023-08-07T03:16:24;13.70;83.10
17437;DHT22;72029;52.198;5.422;2023-08-07T03:18:55;13.70;83.10
17437;DHT22;72029;52.198;5.422;2023-08-07T03:21:24;13.70;83.10
17437;DHT22;72029;52.198;5.422;2023-08-07T03:23:53;13.70;83.10
17437;DHT22;72029;52.198;5.422;2023-08-07T03:26:22;13.70;83.10
17437;DHT22;72029;52.198;5.422;2023-08-07T03:28:51;13.70;83.10
17437;DHT22;72029;52.198;5.422;2023-08-07T03:31:20;13.80;83.10
17437;DHT22;72029;52.198;5.422;2023-08-07T03:33:49;13.80;83.10
17437;DHT22;72029;52.198;5.422;2023-08-07T03:36:22;13.80;83.10
17437;DHT22;72029;52.198;5.422;2023-08-07T03:38:51;13.70;83.10
17437;DHT22;72029;52.198;5.422;2023-08-07T03:41:20;13.70;83.10
17437;DHT22;72029;52.198;5.422;2023-08-07T03:43:49;13.70;83.10
17437;DHT22;72029;52.198;5.422;2023-08-07T03:46:18;13.70;83.10
17437;DHT22;72029;52.198;5.422;2023-08-07T03:48:47;13.70;83.10
17437;DHT22;72029;52.198;5.422;2023-08-07T03:51:16;13.60;83.10
17437;DHT22;72029;52.198;5.422;2023-08-07T03:53:47;13.60;83.10
17437;DHT22;72029;52.198;5.422;2023-08-07T03:56:17;13.70;83.10
17437;DHT22;72029;52.198;5.422;2023-08-07T03:58:46;13.70;83.10
17437;DHT22;72029;52.198;5.422;2023-08-07T04:01:15;13.70;83.10
17437;DHT22;72029;52.198;5.422;2023-08-07T04:03:46;13.70;83.10
17437;DHT22;72029;52.198;5.422;2023-08-07T04:06:16;13.80;83.10
17437;DHT22;72029;52.198;5.422;2023-08-07T04:08:49;13.80;83.10
17437;DHT22;72029;52.198;5.422;2023-08-07T04:11:18;13.80;83.10
17437;DHT22;72029;52.198;5.422;2023-08-07T04:13:47;13.80;83.10
17437;DHT22;72029;52.198;5.422;2023-08-07T04:16:16;13.80;83.10
17437;DHT22;72029;52.198;5.422;2023-08-07T04:18:45;13.80;83.10
17437;DHT22;72029;52.198;5.422;2023-08-07T04:21:14;13.80;83.10
17437;DHT22;72029;52.198;5.422;2023-08-07T04:23:44;13.80;83.10
17437;DHT22;72029;52.198;5.422;2023-08-07T04:26:15;13.80;83.10
17437;DHT22;72029;52.198;5.422;2023-08-07T04:28:44;13.90;83.10
17437;DHT22;72029;52.198;5.422;2023-08-07T04:31:13;13.90;83.10
17437;DHT22;72029;52.198;5.422;2023-08-07T04:33:42;13.90;83.10
17437;DHT22;72029;52.198;5.422;2023-08-07T04:36:11;13.90;83.10
17437;DHT22;72029;52.198;5.422;2023-08-07T04:38:40;13.90;83.10
17437;DHT22;72029;52.198;5.422;2023-08-07T04:41:09;13.90;83.10
17437;DHT22;72029;52.198;5.422;2023-08-07T04:43:41;13.90;83.10
17437;DHT22;72029;52.198;5.422;2023-08-07T04:46:11;13.90;83.10
17437;DHT22;72029;52.198;5.422;2023-08-07T04:48:40;13.90;83.10
17437;DHT22;72029;52.198;5.422;2023-08-07T04:51:09;14.00;83.10
17437;DHT22;72029;52.198;5.422;2023-08-07T04:53:39;14.10;83.10
17437;DHT22;72029;52.198;5.422;2023-08-07T04:56:08;14.00;83.10
17437;DHT22;72029;52.198;5.422;2023-08-07T04:58:37;14.10;83.10
17437;DHT22;72029;52.198;5.422;2023-08-07T05:01:08;14.10;83.10
17437;DHT22;72029;52.198;5.422;2023-08-07T05:03:37;14.10;83.10
17437;DHT22;72029;52.198;5.422;2023-08-07T05:06:06;14.10;83.10
17437;DHT22;72029;52.198;5.422;2023-08-07T05:08:35;14.20;83.10
17437;DHT22;72029;52.198;5.422;2023-08-07T05:11:04;14.10;83.10
17437;DHT22;72029;52.198;5.422;2023-08-07T05:13:33;14.10;83.10
17437;DHT22;72029;52.198;5.422;2023-08-07T05:16:03;14.00;83.10
17437;DHT22;72029;52.198;5.422;2023-08-07T05:18:34;13.90;83.10
17437;DHT22;72029;52.198;5.422;2023-08-07T05:21:03;13.80;83.10
17437;DHT22;72029;52.198;5.422;2023-08-07T05:23:34;13.80;83.10
17437;DHT22;72029;52.198;5.422;2023-08-07T05:26:03;13.80;83.10
17437;DHT22;72029;52.198;5.422;2023-08-07T05:28:32;13.80;83.10
17437;DHT22;72029;52.198;5.422;2023-08-07T05:31:01;13.80;83.10
17437;DHT22;72029;52.198;5.422;2023-08-07T05:33:30;13.80;83.10
17437;DHT22;72029;52.198;5.422;2023-08-07T05:36:02;13.80;83.10
17437;DHT22;72029;52.198;5.422;2023-08-07T05:38:31;13.80;83.10
17437;DHT22;72029;52.198;5.422;2023-08-07T05:41:00;13.90;83.10
17437;DHT22;72029;52.198;5.422;2023-08-07T05:43:29;13.90;83.10
17437;DHT22;72029;52.198;5.422;2023-08-07T05:45:58;13.90;83.10
17437;DHT22;72029;52.198;5.422;2023-08-07T05:48:27;14.00;83.10
17437;DHT22;72029;52.198;5.422;2023-08-07T05:50:56;14.00;83.10
17437;DHT22;72029;52.198;5.422;2023-08-07T05:53:28;14.00;83.10
17437;DHT22;72029;52.198;5.422;2023-08-07T05:55:57;14.10;83.10
17437;DHT22;72029;52.198;5.422;2023-08-07T05:58:26;14.10;83.10
17437;DHT22;72029;52.198;5.422;2023-08-07T06:00:55;14.20;83.10
17437;DHT22;72029;52.198;5.422;2023-08-07T06:03:24;14.30;83.10
17437;DHT22;72029;52.198;5.422;2023-08-07T06:05:53;14.30;83.10
17437;DHT22;72029;52.198;5.422;2023-08-07T06:08:22;14.30;83.10
17437;DHT22;72029;52.198;5.422;2023-08-07T06:10:54;14.40;83.10
17437;DHT22;72029;52.198;5.422;2023-08-07T06:13:23;14.40;83.10
17437;DHT22;72029;52.198;5.422;2023-08-07T06:15:52;14.50;83.10
17437;DHT22;72029;52.198;5.422;2023-08-07T06:18:21;14.50;83.10
17437;DHT22;72029;52.198;5.422;2023-08-07T06:20:50;14.60;83.10
17437;DHT22;72029;52.198;5.422;2023-08-07T06:23:19;14.70;83.10
17437;DHT22;72029;52.198;5.422;2023-08-07T06:25:48;14.80;83.10
17437;DHT22;72029;52.198;5.422;2023-08-07T06:28:20;14.80;83.10
17437;DHT22;72029;52.198;5.422;2023-08-07T06:30:49;14.90;83.10
17437;DHT22;72029;52.198;5.422;2023-08-07T06:33:17;15.00;83.10
17437;DHT22;72029;52.198;5.422;2023-08-07T06:35:46;15.10;83.10
17437;DHT22;72029;52.198;5.422;2023-08-07T06:38:15;15.10;83.10
17437;DHT22;72029;52.198;5.422;2023-08-07T06:40:44;15.20;83.10
17437;DHT22;72029;52.198;5.422;2023-08-07T06:43:13;15.20;83.10
17437;DHT22;72029;52.198;5.422;2023-08-07T06:45:46;15.20;83.10
17437;DHT22;72029;52.198;5.422;2023-08-07T06:48:18;15.30;83.10
17437;DHT22;72029;52.198;5.422;2023-08-07T06:50:47;15.30;83.10
17437;DHT22;72029;52.198;5.422;2023-08-07T06:53:16;15.40;83.10
17437;DHT22;72029;52.198;5.422;2023-08-07T06:55:45;15.40;83.10
17437;DHT22;72029;52.198;5.422;2023-08-07T06:58:15;15.60;83.10
17437;DHT22;72029;52.198;5.422;2023-08-07T07:00:46;15.50;83.10
17437;DHT22;72029;52.198;5.422;2023-08-07T07:03:15;15.50;83.10
17437;DHT22;72029;52.198;5.422;2023-08-07T07:05:44;15.50;83.10
17437;DHT22;72029;52.198;5.422;2023-08-07T07:08:13;15.40;83.10
17437;DHT22;72029;52.198;5.422;2023-08-07T07:10:42;15.10;83.10
17437;DHT22;72029;52.198;5.422;2023-08-07T07:13:11;15.00;83.10
17437;DHT22;72029;52.198;5.422;2023-08-07T07:15:40;14.90;83.10
17437;DHT22;72029;52.198;5.422;2023-08-07T07:18:12;15.00;83.10
17437;DHT22;72029;52.198;5.422;2023-08-07T07:20:40;14.80;83.10
17437;DHT22;72029;52.198;5.422;2023-08-07T07:23:09;14.60;83.10
17437;DHT22;72029;52.198;5.422;2023-08-07T07:25:38;14.70;83.10
17437;DHT22;72029;52.198;5.422;2023-08-07T07:28:07;14.70;83.10
17437;DHT22;72029;52.198;5.422;2023-08-07T07:30:39;14.70;83.10
17437;DHT22;72029;52.198;5.422;2023-08-07T07:33:10;14.80;83.10
17437;DHT22;72029;52.198;5.422;2023-08-07T07:35:39;15.00;83.10
17437;DHT22;72029;52.198;5.422;2023-08-07T07:38:09;15.20;83.10
17437;DHT22;72029;52.198;5.422;2023-08-07T07:40:38;15.30;83.10
17437;DHT22;72029;52.198;5.422;2023-08-07T07:43:07;15.30;83.10
17437;DHT22;72029;52.198;5.422;2023-08-07T07:45:36;15.40;83.10
17437;DHT22;72029;52.198;5.422;2023-08-07T07:48:05;15.40;83.10
17437;DHT22;72029;52.198;5.422;2023-08-07T07:50:37;16.00;83.10
17437;DHT22;72029;52.198;5.422;2023-08-07T07:53:06;16.20;82.90
17437;DHT22;72029;52.198;5.422;2023-08-07T07:55:35;16.40;81.20
17437;DHT22;72029;52.198;5.422;2023-08-07T07:58:04;16.30;81.20
17437;DHT22;72029;52.198;5.422;2023-08-07T08:00:33;16.30;80.50
17437;DHT22;72029;52.198;5.422;2023-08-07T08:03:03;16.50;80.20
17437;DHT22;72029;52.198;5.422;2023-08-07T08:05:32;16.30;78.90
17437;DHT22;72029;52.198;5.422;2023-08-07T08:08:04;16.10;80.80
17437;DHT22;72029;52.198;5.422;2023-08-07T08:10:34;15.40;83.10
17437;DHT22;72029;52.198;5.422;2023-08-07T08:13:03;14.50;83.10
17437;DHT22;72029;52.198;5.422;2023-08-07T08:15:31;14.40;83.10
17437;DHT22;72029;52.198;5.422;2023-08-07T08:18:01;14.40;83.10
17437;DHT22;72029;52.198;5.422;2023-08-07T08:20:30;14.50;83.10
17437;DHT22;72029;52.198;5.422;2023-08-07T08:22:59;14.70;83.10
17437;DHT22;72029;52.198;5.422;2023-08-07T08:25:31;14.80;83.10
17437;DHT22;72029;52.198;5.422;2023-08-07T08:28:00;15.00;83.10
17437;DHT22;72029;52.198;5.422;2023-08-07T08:30:29;15.20;83.10
17437;DHT22;72029;52.198;5.422;2023-08-07T08:32:58;15.50;83.10
17437;DHT22;72029;52.198;5.422;2023-08-07T08:35:27;15.80;83.00
17437;DHT22;72029;52.198;5.422;2023-08-07T08:37:56;16.00;83.10
17437;DHT22;72029;52.198;5.422;2023-08-07T08:40:25;16.30;82.80
17437;DHT22;72029;52.198;5.422;2023-08-07T08:43:00;16.50;81.40
17437;DHT22;72029;52.198;5.422;2023-08-07T08:45:31;16.50;79.30
17437;DHT22;72029;52.198;5.422;2023-08-07T08:48:03;16.40;81.10
17437;DHT22;72029;52.198;5.422;2023-08-07T08:50:33;16.40;79.30
17437;DHT22;72029;52.198;5.422;2023-08-07T08:53:04;16.10;77.30
17437;DHT22;72029;52.198;5.422;2023-08-07T08:55:33;15.80;78.30
17437;DHT22;72029;52.198;5.422;2023-08-07T08:58:06;16.00;79.80
17437;DHT22;72029;52.198;5.422;2023-08-07T09:00:36;16.20;78.80
17437;DHT22;72029;52.198;5.422;2023-08-07T09:03:05;16.20;78.00
17437;DHT22;72029;52.198;5.422;2023-08-07T09:05:35;16.20;78.10
17437;DHT22;72029;52.198;5.422;2023-08-07T09:08:05;16.30;78.40
17437;DHT22;72029;52.198;5.422;2023-08-07T09:10:37;16.30;77.90
17437;DHT22;72029;52.198;5.422;2023-08-07T09:13:12;16.20;76.00
17437;DHT22;72029;52.198;5.422;2023-08-07T09:15:43;16.60;77.20
17437;DHT22;72029;52.198;5.422;2023-08-07T09:18:17;16.80;76.70
17437;DHT22;72029;52.198;5.422;2023-08-07T09:20:46;17.00;74.50
17437;DHT22;72029;52.198;5.422;2023-08-07T09:23:16;17.30;74.40
17437;DHT22;72029;52.198;5.422;2023-08-07T09:25:45;17.80;74.00
17437;DHT22;72029;52.198;5.422;2023-08-07T09:28:17;17.70;69.50
17437;DHT22;72029;52.198;5.422;2023-08-07T09:30:46;17.30;70.30
17437;DHT22;72029;52.198;5.422;2023-08-07T09:33:15;17.10;73.10
17437;DHT22;72029;52.198;5.422;2023-08-07T09:35:53;17.00;72.10
17437;DHT22;72029;52.198;5.422;2023-08-07T09:38:28;16.90;72.70
17437;DHT22;72029;52.198;5.422;2023-08-07T09:40:58;16.90;68.60
17437;DHT22;72029;52.198;5.422;2023-08-07T09:43:34;17.10;69.50
17437;DHT22;72029;52.198;5.422;2023-08-07T09:46:04;17.20;70.40
17437;DHT22;72029;52.198;5.422;2023-08-07T09:48:39;17.10;67.50
17437;DHT22;72029;52.198;5.422;2023-08-07T09:51:09;16.80;68.40
17437;DHT22;72029;52.198;5.422;2023-08-07T09:53:39;16.80;70.60
17437;DHT22;72029;52.198;5.422;2023-08-07T09:56:08;16.80;72.90
17437;DHT22;72029;52.198;5.422;2023-08-07T09:58:46;17.00;73.70
17437;DHT22;72029;52.198;5.422;2023-08-07T10:01:16;17.10;74.20
17437;DHT22;72029;52.198;5.422;2023-08-07T10:03:46;17.00;73.30
17437;DHT22;72029;52.198;5.422;2023-08-07T10:06:15;16.60;75.50
17437;DHT22;72029;52.198;5.422;2023-08-07T10:08:45;16.90;75.30
17437;DHT22;72029;52.198;5.422;2023-08-07T10:11:15;17.00;74.10
17437;DHT22;72029;52.198;5.422;2023-08-07T10:13:47;17.40;73.10
17437;DHT22;72029;52.198;5.422;2023-08-07T10:16:16;17.30;72.40
17437;DHT22;72029;52.198;5.422;2023-08-07T10:18:45;17.30;70.30
17437;DHT22;72029;52.198;5.422;2023-08-07T10:21:14;17.60;70.70
17437;DHT22;72029;52.198;5.422;2023-08-07T10:23:44;17.80;71.80
17437;DHT22;72029;52.198;5.422;2023-08-07T10:26:14;17.80;69.80
17437;DHT22;72029;52.198;5.422;2023-08-07T10:28:46;17.80;71.90
17437;DHT22;72029;52.198;5.422;2023-08-07T10:31:20;18.00;69.60
17437;DHT22;72029;52.198;5.422;2023-08-07T10:33:52;18.20;70.10
17437;DHT22;72029;52.198;5.422;2023-08-07T10:36:21;18.30;71.50
17437;DHT22;72029;52.198;5.422;2023-08-07T10:38:50;18.10;69.10
17437;DHT22;72029;52.198;5.422;2023-08-07T10:41:39;17.50;69.70
17437;DHT22;72029;52.198;5.422;2023-08-07T10:44:21;17.30;71.40
17437;DHT22;72029;52.198;5.422;2023-08-07T10:46:52;17.40;72.10
17437;DHT22;72029;52.198;5.422;2023-08-07T10:49:33;17.10;74.00
17437;DHT22;72029;52.198;5.422;2023-08-07T10:52:08;16.40;78.10
17437;DHT22;72029;52.198;5.422;2023-08-07T10:54:38;16.20;79.90
17437;DHT22;72029;52.198;5.422;2023-08-07T10:57:13;16.50;79.20
17437;DHT22;72029;52.198;5.422;2023-08-07T11:00:01;16.80;78.10
17437;DHT22;72029;52.198;5.422;2023-08-07T11:02:37;17.00;74.80
17437;DHT22;72029;52.198;5.422;2023-08-07T11:05:07;17.00;74.90
17437;DHT22;72029;52.198;5.422;2023-08-07T11:07:40;17.00;75.00
17437;DHT22;72029;52.198;5.422;2023-08-07T11:10:13;17.30;74.40
17437;DHT22;72029;52.198;5.422;2023-08-07T11:12:43;17.20;73.40
17437;DHT22;72029;52.198;5.422;2023-08-07T11:15:15;17.90;73.10
17437;DHT22;72029;52.198;5.422;2023-08-07T11:17:44;18.80;69.30
17437;DHT22;72029;52.198;5.422;2023-08-07T11:20:14;18.80;66.00
17437;DHT22;72029;52.198;5.422;2023-08-07T11:22:44;18.50;66.60
17437;DHT22;72029;52.198;5.422;2023-08-07T11:25:13;18.10;67.60
17437;DHT22;72029;52.198;5.422;2023-08-07T11:27:43;17.50;69.20
17437;DHT22;72029;52.198;5.422;2023-08-07T11:30:15;16.90;73.70
17437;DHT22;72029;52.198;5.422;2023-08-07T11:32:44;16.70;74.10
17437;DHT22;72029;52.198;5.422;2023-08-07T11:35:13;17.10;75.30
17437;DHT22;72029;52.198;5.422;2023-08-07T11:37:46;16.80;74.90
17437;DHT22;72029;52.198;5.422;2023-08-07T11:40:16;16.20;77.50
17437;DHT22;72029;52.198;5.422;2023-08-07T11:42:45;15.80;78.60
17437;DHT22;72029;52.198;5.422;2023-08-07T11:45:17;15.80;79.50
17437;DHT22;72029;52.198;5.422;2023-08-07T11:47:46;16.30;78.50
17437;DHT22;72029;52.198;5.422;2023-08-07T11:50:15;16.30;78.10
17437;DHT22;72029;52.198;5.422;2023-08-07T11:52:44;16.30;78.60
17437;DHT22;72029;52.198;5.422;2023-08-07T11:55:14;16.30;77.30
17437;DHT22;72029;52.198;5.422;2023-08-07T11:57:46;16.50;76.50
17437;DHT22;72029;52.198;5.422;2023-08-07T12:00:18;16.60;73.50
17437;DHT22;72029;52.198;5.422;2023-08-07T12:02:47;17.00;68.90
17437;DHT22;72029;52.198;5.422;2023-08-07T12:05:16;17.40;66.40
17437;DHT22;72029;52.198;5.422;2023-08-07T12:07:47;18.80;62.70
17437;DHT22;72029;52.198;5.422;2023-08-07T12:10:16;18.40;60.30
17437;DHT22;72029;52.198;5.422;2023-08-07T12:12:45;17.80;64.80
17437;DHT22;72029;52.198;5.422;2023-08-07T12:15:19;18.70;57.00
17437;DHT22;72029;52.198;5.422;2023-08-07T12:17:48;19.40;56.30
17437;DHT22;72029;52.198;5.422;2023-08-07T12:20:17;20.30;55.20
17437;DHT22;72029;52.198;5.422;2023-08-07T12:22:46;21.50;53.00
17437;DHT22;72029;52.198;5.422;2023-08-07T12:25:15;21.40;51.30
17437;DHT22;72029;52.198;5.422;2023-08-07T12:27:44;21.20;45.40
17437;DHT22;72029;52.198;5.422;2023-08-07T12:30:15;19.10;52.00
17437;DHT22;72029;52.198;5.422;2023-08-07T12:32:47;18.40;54.60
17437;DHT22;72029;52.198;5.422;2023-08-07T12:35:16;18.30;55.60
17437;DHT22;72029;52.198;5.422;2023-08-07T12:37:45;19.00;55.20
17437;DHT22;72029;52.198;5.422;2023-08-07T12:40:14;19.10;54.30
17437;DHT22;72029;52.198;5.422;2023-08-07T12:42:46;19.40;54.20
17437;DHT22;72029;52.198;5.422;2023-08-07T12:45:15;19.30;55.90
17437;DHT22;72029;52.198;5.422;2023-08-07T12:47:47;19.30;53.70
17437;DHT22;72029;52.198;5.422;2023-08-07T12:50:16;18.50;53.80
17437;DHT22;72029;52.198;5.422;2023-08-07T12:52:45;18.20;56.10
17437;DHT22;72029;52.198;5.422;2023-08-07T12:55:14;18.30;56.30
17437;DHT22;72029;52.198;5.422;2023-08-07T12:57:44;18.50;58.40
17437;DHT22;72029;52.198;5.422;2023-08-07T13:00:15;18.50;53.80
17437;DHT22;72029;52.198;5.422;2023-08-07T13:02:48;18.90;54.00
17437;DHT22;72029;52.198;5.422;2023-08-07T13:05:21;18.70;54.80
17437;DHT22;72029;52.198;5.422;2023-08-07T13:07:51;18.80;54.90
17437;DHT22;72029;52.198;5.422;2023-08-07T13:10:24;20.00;52.70
17437;DHT22;72029;52.198;5.422;2023-08-07T13:12:54;21.10;48.50
17437;DHT22;72029;52.198;5.422;2023-08-07T13:15:24;20.90;50.20
17437;DHT22;72029;52.198;5.422;2023-08-07T13:17:56;19.70;52.60
17437;DHT22;72029;52.198;5.422;2023-08-07T13:20:26;19.20;55.40
17437;DHT22;72029;52.198;5.422;2023-08-07T13:22:59;19.40;54.10
17437;DHT22;72029;52.198;5.422;2023-08-07T13:25:31;20.20;52.50
17437;DHT22;72029;52.198;5.422;2023-08-07T13:28:01;20.40;52.80
17437;DHT22;72029;52.198;5.422;2023-08-07T13:30:32;20.30;51.80
17437;DHT22;72029;52.198;5.422;2023-08-07T13:33:04;20.30;52.00
17437;DHT22;72029;52.198;5.422;2023-08-07T13:35:33;20.70;51.80
17437;DHT22;72029;52.198;5.422;2023-08-07T13:38:02;21.30;47.80
17437;DHT22;72029;52.198;5.422;2023-08-07T13:40:33;21.30;47.80
17437;DHT22;72029;52.198;5.422;2023-08-07T13:43:02;20.90;50.10
17437;DHT22;72029;52.198;5.422;2023-08-07T13:45:34;20.60;49.60
17437;DHT22;72029;52.198;5.422;2023-08-07T13:48:06;20.80;47.50
17437;DHT22;72029;52.198;5.422;2023-08-07T13:50:35;20.60;48.70
17437;DHT22;72029;52.198;5.422;2023-08-07T13:53:06;20.20;48.80
17437;DHT22;72029;52.198;5.422;2023-08-07T13:55:35;20.20;50.40
17437;DHT22;72029;52.198;5.422;2023-08-07T13:58:05;19.90;52.80
17437;DHT22;72029;52.198;5.422;2023-08-07T14:00:35;20.00;52.80
17437;DHT22;72029;52.198;5.422;2023-08-07T14:03:08;19.30;53.40
17437;DHT22;72029;52.198;5.422;2023-08-07T14:05:38;19.50;53.90
17437;DHT22;72029;52.198;5.422;2023-08-07T14:08:07;20.00;50.80
17437;DHT22;72029;52.198;5.422;2023-08-07T14:10:36;20.10;51.20
17437;DHT22;72029;52.198;5.422;2023-08-07T14:13:07;20.30;50.80
17437;DHT22;72029;52.198;5.422;2023-08-07T14:15:37;20.30;49.90
17437;DHT22;72029;52.198;5.422;2023-08-07T14:18:09;20.80;48.50
17437;DHT22;72029;52.198;5.422;2023-08-07T14:20:40;22.00;47.00
17437;DHT22;72029;52.198;5.422;2023-08-07T14:23:09;22.30;45.60
17437;DHT22;72029;52.198;5.422;2023-08-07T14:25:38;22.00;45.80
17437;DHT22;72029;52.198;5.422;2023-08-07T14:28:08;21.50;47.00
17437;DHT22;72029;52.198;5.422;2023-08-07T14:30:37;21.60;46.40
17437;DHT22;72029;52.198;5.422;2023-08-07T14:33:09;20.60;49.60
17437;DHT22;72029;52.198;5.422;2023-08-07T14:35:38;20.20;50.60
17437;DHT22;72029;52.198;5.422;2023-08-07T14:38:07;20.90;49.50
17437;DHT22;72029;52.198;5.422;2023-08-07T14:40:36;21.20;48.00
17437;DHT22;72029;52.198;5.422;2023-08-07T14:43:06;21.40;47.60
17437;DHT22;72029;52.198;5.422;2023-08-07T14:45:36;21.20;50.30
17437;DHT22;72029;52.198;5.422;2023-08-07T14:48:07;20.60;50.60
17437;DHT22;72029;52.198;5.422;2023-08-07T14:50:36;21.10;51.10
17437;DHT22;72029;52.198;5.422;2023-08-07T14:53:05;21.40;50.00
17437;DHT22;72029;52.198;5.422;2023-08-07T14:55:34;21.20;50.40
17437;DHT22;72029;52.198;5.422;2023-08-07T14:58:03;21.70;47.40
17437;DHT22;72029;52.198;5.422;2023-08-07T15:00:33;20.50;51.30
17437;DHT22;72029;52.198;5.422;2023-08-07T15:03:03;19.60;52.50
17437;DHT22;72029;52.198;5.422;2023-08-07T15:05:35;19.20;54.70
17437;DHT22;72029;52.198;5.422;2023-08-07T15:08:04;18.90;55.20
17437;DHT22;72029;52.198;5.422;2023-08-07T15:10:33;19.60;53.00
17437;DHT22;72029;52.198;5.422;2023-08-07T15:13:02;20.10;52.20
17437;DHT22;72029;52.198;5.422;2023-08-07T15:15:31;20.60;51.80
17437;DHT22;72029;52.198;5.422;2023-08-07T15:18:00;19.90;54.10
17437;DHT22;72029;52.198;5.422;2023-08-07T15:20:35;20.20;53.00
17437;DHT22;72029;52.198;5.422;2023-08-07T15:23:04;20.00;53.40
17437;DHT22;72029;52.198;5.422;2023-08-07T15:25:33;19.90;54.50
17437;DHT22;72029;52.198;5.422;2023-08-07T15:28:03;18.60;58.20
17437;DHT22;72029;52.198;5.422;2023-08-07T15:30:33;18.20;59.20
17437;DHT22;72029;52.198;5.422;2023-08-07T15:33:02;18.10;61.70
17437;DHT22;72029;52.198;5.422;2023-08-07T15:35:31;17.50;64.00
17437;DHT22;72029;52.198;5.422;2023-08-07T15:38:03;17.20;66.20
17437;DHT22;72029;52.198;5.422;2023-08-07T15:40:32;17.40;66.90
17437;DHT22;72029;52.198;5.422;2023-08-07T15:43:01;18.70;63.20
17437;DHT22;72029;52.198;5.422;2023-08-07T15:45:30;19.10;61.40
17437;DHT22;72029;52.198;5.422;2023-08-07T15:47:59;19.20;60.90